sensor_id;sensor_type;location;lat;lon;timestamp;temperature;humidity
47616;DHT22;69146;52.266;7.000;2023-12-07T00:02:18;0.90;99.90
47616;DHT22;69146;52.266;7.000;2023-12-07T00:05:03;0.90;99.90
47616;DHT22;69146;52.266;7.000;2023-12-07T00:07:48;0.90;99.90
47616;DHT22;69146;52.266;7.000;2023-12-07T00:10:33;0.90;99.90
47616;DHT22;69146;52.266;7.000;2023-12-07T00:13:18;0.90;99.90
47616;DHT22;69146;52.266;7.000;2023-12-07T00:16:02;0.80;99.90
47616;DHT22;69146;52.266;7.000;2023-12-07T00:18:47;0.80;99.90
47616;DHT22;69146;52.266;7.000;2023-12-07T00:21:31;0.80;99.90
47616;DHT22;69146;52.266;7.000;2023-12-07T00:24:16;0.70;99.90
47616;DHT22;69146;52.266;7.000;2023-12-07T00:27:02;0.80;99.90
47616;DHT22;69146;52.266;7.000;2023-12-07T00:29:46;0.80;99.90
47616;DHT22;69146;52.266;7.000;2023-12-07T00:32:30;0.70;99.90
47616;DHT22;69146;52.266;7.000;2023-12-07T00:35:15;0.80;99.90
47616;DHT22;69146;52.266;7.000;2023-12-07T00:38:00;0.70;99.90
47616;DHT22;69146;52.266;7.000;2023-12-07T00:40:44;0.70;99.90
47616;DHT22;69146;52.266;7.000;2023-12-07T00:43:30;0.70;99.90
47616;DHT22;69146;52.266;7.000;2023-12-07T00:46:14;0.70;99.90
47616;DHT22;69146;52.266;7.000;2023-12-07T00:48:59;0.60;99.90
47616;DHT22;69146;52.266;7.000;2023-12-07T00:51:43;0.50;99.90
47616;DHT22;69146;52.266;7.000;2023-12-07T00:54:27;0.50;99.90
47616;DHT22;69146;52.266;7.000;2023-12-07T00:57:12;0.50;99.90
47616;DHT22;69146;52.266;7.000;2023-12-07T00:59:58;0.50;99.90
47616;DHT22;69146;52.266;7.000;2023-12-07T01:02:42;0.50;99.90
47616;DHT22;69146;52.266;7.000;2023-12-07T01:05:26;0.50;99.90
47616;DHT22;69146;52.266;7.000;2023-12-07T01:08:11;0.50;99.90
47616;DHT22;69146;52.266;7.000;2023-12-07T01:10:55;0.60;99.90
47616;DHT22;69146;52.266;7.000;2023-12-07T01:13:39;0.60;99.90
47616;DHT22;69146;52.266;7.000;2023-12-07T01:16:25;0.60;99.90
47616;DHT22;69146;52.266;7.000;2023-12-07T01:19:10;0.70;99.90
47616;DHT22;69146;52.266;7.000;2023-12-07T01:21:58;0.70;99.90
47616;DHT22;69146;52.266;7.000;2023-12-07T01:24:43;0.80;99.90
47616;DHT22;69146;52.266;7.000;2023-12-07T01:27:28;0.80;99.90
47616;DHT22;69146;52.266;7.000;2023-12-07T01:30:12;0.80;99.90
47616;DHT22;69146;52.266;7.000;2023-12-07T01:32:58;0.80;99.90
47616;DHT22;69146;52.266;7.000;2023-12-07T01:35:42;0.80;99.90
47616;DHT22;69146;52.266;7.000;2023-12-07T01:38:27;0.90;99.90
47616;DHT22;69146;52.266;7.000;2023-12-07T01:41:12;0.90;99.90
47616;DHT22;69146;52.266;7.000;2023-12-07T01:43:56;0.90;99.90
47616;DHT22;69146;52.266;7.000;2023-12-07T01:46:41;0.90;99.90
47616;DHT22;69146;52.266;7.000;2023-12-07T01:49:27;1.00;99.90
47616;DHT22;69146;52.266;7.000;2023-12-07T01:52:12;1.00;99.90
47616;DHT22;69146;52.266;7.000;2023-12-07T01:54:57;0.90;99.90
47616;DHT22;69146;52.266;7.000;2023-12-07T01:57:42;1.00;99.90
47616;DHT22;69146;52.266;7.000;2023-12-07T02:00:27;1.00;99.90
47616;DHT22;69146;52.266;7.000;2023-12-07T02:03:12;1.00;99.90
47616;DHT22;69146;52.266;7.000;2023-12-07T02:05:58;1.00;99.90
47616;DHT22;69146;52.266;7.000;2023-12-07T02:08:43;1.00;99.90
47616;DHT22;69146;52.266;7.000;2023-12-07T02:11:28;1.00;99.90
47616;DHT22;69146;52.266;7.000;2023-12-07T02:14:12;1.00;99.90
47616;DHT22;69146;52.266;7.000;2023-12-07T02:16:57;1.00;99.90
47616;DHT22;69146;52.266;7.000;2023-12-07T02:19:50;1.00;99.90
47616;DHT22;69146;52.266;7.000;2023-12-07T02:22:38;1.00;99.90
47616;DHT22;69146;52.266;7.000;2023-12-07T02:25:24;1.00;99.90
47616;DHT22;69146;52.266;7.000;2023-12-07T02:28:12;1.00;99.90
47616;DHT22;69146;52.266;7.000;2023-12-07T02:30:56;1.00;99.90
47616;DHT22;69146;52.266;7.000;2023-12-07T02:33:40;1.00;99.90
47616;DHT22;69146;52.266;7.000;2023-12-07T02:36:25;0.90;99.90
47616;DHT22;69146;52.266;7.000;2023-12-07T02:39:12;0.90;99.90
47616;DHT22;69146;52.266;7.000;2023-12-07T02:41:57;0.80;99.90
47616;DHT22;69146;52.266;7.000;2023-12-07T02:44:43;0.80;99.90
47616;DHT22;69146;52.266;7.000;2023-12-07T02:47:28;0.70;99.90
47616;DHT22;69146;52.266;7.000;2023-12-07T02:50:12;0.70;99.90
47616;DHT22;69146;52.266;7.000;2023-12-07T02:52:57;0.60;99.90
47616;DHT22;69146;52.266;7.000;2023-12-07T02:55:41;0.50;99.90
47616;DHT22;69146;52.266;7.000;2023-12-07T02:58:26;0.50;99.90
47616;DHT22;69146;52.266;7.000;2023-12-07T03:01:12;0.40;99.90
47616;DHT22;69146;52.266;7.000;2023-12-07T03:03:56;0.40;99.90
47616;DHT22;69146;52.266;7.000;2023-12-07T03:06:41;0.40;99.90
47616;DHT22;69146;52.266;7.000;2023-12-07T03:09:25;0.30;99.90
47616;DHT22;69146;52.266;7.000;2023-12-07T03:12:09;0.30;99.90
47616;DHT22;69146;52.266;7.000;2023-12-07T03:14:53;0.20;99.90
47616;DHT22;69146;52.266;7.000;2023-12-07T03:17:39;0.20;99.90
47616;DHT22;69146;52.266;7.000;2023-12-07T03:20:24;0.20;99.90
47616;DHT22;69146;52.266;7.000;2023-12-07T03:23:08;0.20;99.90
47616;DHT22;69146;52.266;7.000;2023-12-07T03:25:53;0.20;99.90
47616;DHT22;69146;52.266;7.000;2023-12-07T03:28:37;0.20;99.90
47616;DHT22;69146;52.266;7.000;2023-12-07T03:31:22;0.20;99.90
47616;DHT22;69146;52.266;7.000;2023-12-07T03:34:08;0.20;99.90
47616;DHT22;69146;52.266;7.000;2023-12-07T03:36:52;0.10;99.90
47616;DHT22;69146;52.266;7.000;2023-12-07T03:39:37;0.10;99.90
47616;DHT22;69146;52.266;7.000;2023-12-07T03:42:21;0.10;99.90
47616;DHT22;69146;52.266;7.000;2023-12-07T03:45:06;0.10;99.90
47616;DHT22;69146;52.266;7.000;2023-12-07T03:47:51;0.10;99.90
47616;DHT22;69146;52.266;7.000;2023-12-07T03:50:37;0.00;99.90
47616;DHT22;69146;52.266;7.000;2023-12-07T03:53:21;0.00;99.90
47616;DHT22;69146;52.266;7.000;2023-12-07T03:56:06;0.00;99.90
47616;DHT22;69146;52.266;7.000;2023-12-07T03:58:51;0.00;99.90
47616;DHT22;69146;52.266;7.000;2023-12-07T04:01:35;0.00;99.90
47616;DHT22;69146;52.266;7.000;2023-12-07T04:04:20;-0.10;99.90
47616;DHT22;69146;52.266;7.000;2023-12-07T04:07:06;-0.10;99.90
47616;DHT22;69146;52.266;7.000;2023-12-07T04:09:50;-0.10;99.90
47616;DHT22;69146;52.266;7.000;2023-12-07T04:12:34;0.00;99.90
47616;DHT22;69146;52.266;7.000;2023-12-07T04:15:19;0.00;99.90
47616;DHT22;69146;52.266;7.000;2023-12-07T04:18:04;0.00;99.90
47616;DHT22;69146;52.266;7.000;2023-12-07T04:20:48;0.00;99.90
47616;DHT22;69146;52.266;7.000;2023-12-07T04:23:34;0.10;99.90
47616;DHT22;69146;52.266;7.000;2023-12-07T04:26:18;0.10;99.90
47616;DHT22;69146;52.266;7.000;2023-12-07T04:29:03;0.10;99.90
47616;DHT22;69146;52.266;7.000;2023-12-07T04:31:47;0.10;99.90
47616;DHT22;69146;52.266;7.000;2023-12-07T04:34:32;0.10;99.90
47616;DHT22;69146;52.266;7.000;2023-12-07T04:37:16;0.10;99.90
47616;DHT22;69146;52.266;7.000;2023-12-07T04:40:02;0.10;99.90
47616;DHT22;69146;52.266;7.000;2023-12-07T04:42:49;0.10;99.90
47616;DHT22;69146;52.266;7.000;2023-12-07T04:45:33;0.10;99.90
47616;DHT22;69146;52.266;7.000;2023-12-07T04:48:18;0.10;99.90
47616;DHT22;69146;52.266;7.000;2023-12-07T04:51:02;0.20;99.90
47616;DHT22;69146;52.266;7.000;2023-12-07T04:53:46;0.20;99.90
47616;DHT22;69146;52.266;7.000;2023-12-07T04:56:32;0.20;99.90
47616;DHT22;69146;52.266;7.000;2023-12-07T04:59:17;0.20;99.90
47616;DHT22;69146;52.266;7.000;2023-12-07T05:02:01;0.20;99.90
47616;DHT22;69146;52.266;7.000;2023-12-07T05:04:46;0.20;99.90
47616;DHT22;69146;52.266;7.000;2023-12-07T05:07:30;0.20;99.90
47616;DHT22;69146;52.266;7.000;2023-12-07T05:10:14;0.20;99.90
47616;DHT22;69146;52.266;7.000;2023-12-07T05:13:00;0.20;99.90
47616;DHT22;69146;52.266;7.000;2023-12-07T05:15:44;0.20;99.90
47616;DHT22;69146;52.266;7.000;2023-12-07T05:18:30;0.20;99.90
47616;DHT22;69146;52.266;7.000;2023-12-07T05:21:15;0.20;99.90
47616;DHT22;69146;52.266;7.000;2023-12-07T05:23:59;0.10;99.90
47616;DHT22;69146;52.266;7.000;2023-12-07T05:26:44;0.10;99.90
47616;DHT22;69146;52.266;7.000;2023-12-07T05:29:31;0.10;99.90
47616;DHT22;69146;52.266;7.000;2023-12-07T05:32:16;0.10;99.90
47616;DHT22;69146;52.266;7.000;2023-12-07T05:35:00;0.10;99.90
47616;DHT22;69146;52.266;7.000;2023-12-07T05:37:44;0.10;99.90
47616;DHT22;69146;52.266;7.000;2023-12-07T05:40:28;0.00;99.90
47616;DHT22;69146;52.266;7.000;2023-12-07T05:43:13;0.00;99.90
47616;DHT22;69146;52.266;7.000;2023-12-07T05:45:58;0.00;99.90
47616;DHT22;69146;52.266;7.000;2023-12-07T05:48:43;0.00;99.90
47616;DHT22;69146;52.266;7.000;2023-12-07T05:51:27;0.00;99.90
47616;DHT22;69146;52.266;7.000;2023-12-07T05:54:11;0.00;99.90
47616;DHT22;69146;52.266;7.000;2023-12-07T05:56:56;0.00;99.90
47616;DHT22;69146;52.266;7.000;2023-12-07T05:59:40;0.00;99.90
47616;DHT22;69146;52.266;7.000;2023-12-07T06:02:28;0.00;99.90
47616;DHT22;69146;52.266;7.000;2023-12-07T06:05:12;0.00;99.90
47616;DHT22;69146;52.266;7.000;2023-12-07T06:07:57;0.00;99.90
47616;DHT22;69146;52.266;7.000;2023-12-07T06:10:41;0.00;99.90
47616;DHT22;69146;52.266;7.000;2023-12-07T06:13:26;0.00;99.90
47616;DHT22;69146;52.266;7.000;2023-12-07T06:16:13;0.00;99.90
47616;DHT22;69146;52.266;7.000;2023-12-07T06:19:00;0.00;99.90
47616;DHT22;69146;52.266;7.000;2023-12-07T06:21:44;0.00;99.90
47616;DHT22;69146;52.266;7.000;2023-12-07T06:24:28;0.00;99.90
47616;DHT22;69146;52.266;7.000;2023-12-07T06:27:13;0.00;99.90
47616;DHT22;69146;52.266;7.000;2023-12-07T06:29:57;0.00;99.90
47616;DHT22;69146;52.266;7.000;2023-12-07T06:32:42;0.00;99.90
47616;DHT22;69146;52.266;7.000;2023-12-07T06:35:27;0.00;99.90
47616;DHT22;69146;52.266;7.000;2023-12-07T06:38:12;0.00;99.90
47616;DHT22;69146;52.266;7.000;2023-12-07T06:40:56;0.00;99.90
47616;DHT22;69146;52.266;7.000;2023-12-07T06:43:41;0.00;99.90
47616;DHT22;69146;52.266;7.000;2023-12-07T06:46:25;0.00;99.90
47616;DHT22;69146;52.266;7.000;2023-12-07T06:49:10;0.00;99.90
47616;DHT22;69146;52.266;7.000;2023-12-07T06:51:58;0.00;99.90
47616;DHT22;69146;52.266;7.000;2023-12-07T06:54:42;0.00;99.90
47616;DHT22;69146;52.266;7.000;2023-12-07T06:57:26;-0.10;99.90
47616;DHT22;69146;52.266;7.000;2023-12-07T07:00:12;0.00;99.90
47616;DHT22;69146;52.266;7.000;2023-12-07T07:02:57;0.00;99.90
47616;DHT22;69146;52.266;7.000;2023-12-07T07:05:42;0.00;99.90
47616;DHT22;69146;52.266;7.000;2023-12-07T07:08:28;0.00;99.90
47616;DHT22;69146;52.266;7.000;2023-12-07T07:11:13;-0.10;99.90
47616;DHT22;69146;52.266;7.000;2023-12-07T07:14:00;0.00;99.90
47616;DHT22;69146;52.266;7.000;2023-12-07T07:16:45;0.00;99.90
47616;DHT22;69146;52.266;7.000;2023-12-07T07:19:29;0.00;99.90
47616;DHT22;69146;52.266;7.000;2023-12-07T07:22:14;0.10;99.90
47616;DHT22;69146;52.266;7.000;2023-12-07T07:24:59;0.00;99.90
47616;DHT22;69146;52.266;7.000;2023-12-07T07:27:45;0.00;99.90
47616;DHT22;69146;52.266;7.000;2023-12-07T07:30:29;0.00;99.90
47616;DHT22;69146;52.266;7.000;2023-12-07T07:33:14;0.10;99.90
47616;DHT22;69146;52.266;7.000;2023-12-07T07:35:58;0.10;99.90
47616;DHT22;69146;52.266;7.000;2023-12-07T07:38:42;0.10;99.90
47616;DHT22;69146;52.266;7.000;2023-12-07T07:41:29;0.10;99.90
47616;DHT22;69146;52.266;7.000;2023-12-07T07:44:14;0.10;99.90
47616;DHT22;69146;52.266;7.000;2023-12-07T07:46:58;0.20;99.90
47616;DHT22;69146;52.266;7.000;2023-12-07T07:49:42;0.20;99.90
47616;DHT22;69146;52.266;7.000;2023-12-07T07:52:27;0.20;99.90
47616;DHT22;69146;52.266;7.000;2023-12-07T07:55:12;0.30;99.90
47616;DHT22;69146;52.266;7.000;2023-12-07T07:57:57;0.30;99.90
47616;DHT22;69146;52.266;7.000;2023-12-07T08:00:42;0.30;99.90
47616;DHT22;69146;52.266;7.000;2023-12-07T08:03:26;0.30;99.90
47616;DHT22;69146;52.266;7.000;2023-12-07T08:06:10;0.40;99.90
47616;DHT22;69146;52.266;7.000;2023-12-07T08:08:55;0.40;99.90
47616;DHT22;69146;52.266;7.000;2023-12-07T08:11:40;0.50;99.90
47616;DHT22;69146;52.266;7.000;2023-12-07T08:14:26;0.50;99.90
47616;DHT22;69146;52.266;7.000;2023-12-07T08:17:12;0.50;99.90
47616;DHT22;69146;52.266;7.000;2023-12-07T08:19:56;0.60;99.90
47616;DHT22;69146;52.266;7.000;2023-12-07T08:22:43;0.60;99.90
47616;DHT22;69146;52.266;7.000;2023-12-07T08:25:28;0.60;99.90
47616;DHT22;69146;52.266;7.000;2023-12-07T08:28:12;0.70;99.90
47616;DHT22;69146;52.266;7.000;2023-12-07T08:30:58;0.70;99.90
47616;DHT22;69146;52.266;7.000;2023-12-07T08:33:43;0.80;99.90
47616;DHT22;69146;52.266;7.000;2023-12-07T08:36:27;0.80;99.90
47616;DHT22;69146;52.266;7.000;2023-12-07T08:39:12;0.80;99.90
47616;DHT22;69146;52.266;7.000;2023-12-07T08:41:56;0.90;99.90
47616;DHT22;69146;52.266;7.000;2023-12-07T08:44:42;1.00;99.90
47616;DHT22;69146;52.266;7.000;2023-12-07T08:47:28;1.00;99.90
47616;DHT22;69146;52.266;7.000;2023-12-07T08:50:14;1.10;99.90
47616;DHT22;69146;52.266;7.000;2023-12-07T08:52:58;1.10;99.90
47616;DHT22;69146;52.266;7.000;2023-12-07T08:55:43;1.10;99.90
47616;DHT22;69146;52.266;7.000;2023-12-07T08:58:28;1.20;99.90
47616;DHT22;69146;52.266;7.000;2023-12-07T09:01:12;1.20;99.90
47616;DHT22;69146;52.266;7.000;2023-12-07T09:03:57;1.30;99.90
47616;DHT22;69146;52.266;7.000;2023-12-07T09:06:42;1.40;99.90
47616;DHT22;69146;52.266;7.000;2023-12-07T09:09:26;1.40;99.90
47616;DHT22;69146;52.266;7.000;2023-12-07T09:12:11;1.40;99.90
47616;DHT22;69146;52.266;7.000;2023-12-07T09:14:55;1.50;99.90
47616;DHT22;69146;52.266;7.000;2023-12-07T09:17:39;1.50;99.90
47616;DHT22;69146;52.266;7.000;2023-12-07T09:20:25;1.60;99.90
47616;DHT22;69146;52.266;7.000;2023-12-07T09:23:10;1.60;99.90
47616;DHT22;69146;52.266;7.000;2023-12-07T09:25:55;1.60;99.90
47616;DHT22;69146;52.266;7.000;2023-12-07T09:28:39;1.70;99.90
47616;DHT22;69146;52.266;7.000;2023-12-07T09:31:23;1.80;99.90
47616;DHT22;69146;52.266;7.000;2023-12-07T09:34:08;1.80;99.90
47616;DHT22;69146;52.266;7.000;2023-12-07T09:37:06;1.90;99.90
47616;DHT22;69146;52.266;7.000;2023-12-07T09:39:50;1.90;99.90
47616;DHT22;69146;52.266;7.000;2023-12-07T09:42:35;2.00;99.90
47616;DHT22;69146;52.266;7.000;2023-12-07T09:45:20;2.00;99.90
47616;DHT22;69146;52.266;7.000;2023-12-07T09:48:04;2.10;99.90
47616;DHT22;69146;52.266;7.000;2023-12-07T09:50:49;2.10;99.90
47616;DHT22;69146;52.266;7.000;2023-12-07T09:53:35;2.10;99.90
47616;DHT22;69146;52.266;7.000;2023-12-07T09:56:19;2.10;99.90
47616;DHT22;69146;52.266;7.000;2023-12-07T09:59:04;2.20;99.90
47616;DHT22;69146;52.266;7.000;2023-12-07T10:01:48;2.20;99.90
47616;DHT22;69146;52.266;7.000;2023-12-07T10:04:33;2.30;99.90
47616;DHT22;69146;52.266;7.000;2023-12-07T10:07:18;2.30;99.90
47616;DHT22;69146;52.266;7.000;2023-12-07T10:10:17;2.30;99.90
47616;DHT22;69146;52.266;7.000;2023-12-07T10:13:02;2.30;99.90
47616;DHT22;69146;52.266;7.000;2023-12-07T10:15:46;2.30;99.90
47616;DHT22;69146;52.266;7.000;2023-12-07T10:18:31;2.30;99.90
47616;DHT22;69146;52.266;7.000;2023-12-07T10:21:15;2.30;99.90
47616;DHT22;69146;52.266;7.000;2023-12-07T10:23:59;2.40;99.90
47616;DHT22;69146;52.266;7.000;2023-12-07T10:26:47;2.50;99.90
47616;DHT22;69146;52.266;7.000;2023-12-07T10:29:34;2.50;99.90
47616;DHT22;69146;52.266;7.000;2023-12-07T10:32:19;2.50;99.90
47616;DHT22;69146;52.266;7.000;2023-12-07T10:35:06;2.50;99.90
47616;DHT22;69146;52.266;7.000;2023-12-07T10:37:51;2.60;99.90
47616;DHT22;69146;52.266;7.000;2023-12-07T10:40:36;2.60;99.90
47616;DHT22;69146;52.266;7.000;2023-12-07T10:43:21;2.60;99.90
47616;DHT22;69146;52.266;7.000;2023-12-07T10:46:06;2.60;99.90
47616;DHT22;69146;52.266;7.000;2023-12-07T10:48:51;2.60;99.90
47616;DHT22;69146;52.266;7.000;2023-12-07T10:51:37;2.70;99.90
47616;DHT22;69146;52.266;7.000;2023-12-07T10:54:23;2.70;99.90
47616;DHT22;69146;52.266;7.000;2023-12-07T10:57:10;2.70;99.90
47616;DHT22;69146;52.266;7.000;2023-12-07T10:59:57;2.70;99.90
47616;DHT22;69146;52.266;7.000;2023-12-07T11:02:42;2.70;99.90
47616;DHT22;69146;52.266;7.000;2023-12-07T11:05:27;2.80;99.90
47616;DHT22;69146;52.266;7.000;2023-12-07T11:08:15;2.80;99.90
47616;DHT22;69146;52.266;7.000;2023-12-07T11:11:01;2.80;99.90
47616;DHT22;69146;52.266;7.000;2023-12-07T11:13:48;2.80;99.90
47616;DHT22;69146;52.266;7.000;2023-12-07T11:16:36;2.80;99.90
47616;DHT22;69146;52.266;7.000;2023-12-07T11:22:24;2.80;99.90
47616;DHT22;69146;52.266;7.000;2023-12-07T11:25:12;2.90;99.90
47616;DHT22;69146;52.266;7.000;2023-12-07T11:28:00;2.90;99.90
47616;DHT22;69146;52.266;7.000;2023-12-07T11:30:45;3.00;99.90
47616;DHT22;69146;52.266;7.000;2023-12-07T11:33:31;2.90;99.90
47616;DHT22;69146;52.266;7.000;2023-12-07T11:36:15;3.00;99.90
47616;DHT22;69146;52.266;7.000;2023-12-07T11:39:15;3.00;99.90
47616;DHT22;69146;52.266;7.000;2023-12-07T11:42:05;3.00;99.90
47616;DHT22;69146;52.266;7.000;2023-12-07T11:44:50;3.00;99.90
47616;DHT22;69146;52.266;7.000;2023-12-07T11:47:35;3.00;99.90
47616;DHT22;69146;52.266;7.000;2023-12-07T11:50:20;3.00;99.90
47616;DHT22;69146;52.266;7.000;2023-12-07T11:53:05;3.10;99.90
47616;DHT22;69146;52.266;7.000;2023-12-07T11:55:50;3.10;99.90
47616;DHT22;69146;52.266;7.000;2023-12-07T11:58:34;3.20;99.90
47616;DHT22;69146;52.266;7.000;2023-12-07T12:01:19;3.20;99.90
47616;DHT22;69146;52.266;7.000;2023-12-07T12:04:05;3.20;99.90
47616;DHT22;69146;52.266;7.000;2023-12-07T12:06:51;3.20;99.90
47616;DHT22;69146;52.266;7.000;2023-12-07T12:09:36;3.20;99.90
47616;DHT22;69146;52.266;7.000;2023-12-07T12:12:21;3.20;99.90
47616;DHT22;69146;52.266;7.000;2023-12-07T12:15:06;3.30;99.90
47616;DHT22;69146;52.266;7.000;2023-12-07T12:17:50;3.30;99.90
47616;DHT22;69146;52.266;7.000;2023-12-07T12:20:35;3.30;99.90
47616;DHT22;69146;52.266;7.000;2023-12-07T12:23:21;3.30;99.90
47616;DHT22;69146;52.266;7.000;2023-12-07T12:26:06;3.30;99.90
47616;DHT22;69146;52.266;7.000;2023-12-07T12:28:51;3.40;99.90
47616;DHT22;69146;52.266;7.000;2023-12-07T12:31:37;3.40;99.90
47616;DHT22;69146;52.266;7.000;2023-12-07T12:34:21;3.40;99.90
47616;DHT22;69146;52.266;7.000;2023-12-07T12:37:06;3.40;99.90
47616;DHT22;69146;52.266;7.000;2023-12-07T12:39:52;3.40;99.90
47616;DHT22;69146;52.266;7.000;2023-12-07T12:42:37;3.40;99.90
47616;DHT22;69146;52.266;7.000;2023-12-07T12:45:22;3.40;99.90
47616;DHT22;69146;52.266;7.000;2023-12-07T12:48:06;3.40;99.90
47616;DHT22;69146;52.266;7.000;2023-12-07T12:50:51;3.40;99.90
47616;DHT22;69146;52.266;7.000;2023-12-07T12:53:36;3.40;99.90
47616;DHT22;69146;52.266;7.000;2023-12-07T12:56:26;3.40;99.90
47616;DHT22;69146;52.266;7.000;2023-12-07T12:59:11;3.50;99.90
47616;DHT22;69146;52.266;7.000;2023-12-07T13:01:57;3.50;99.90
47616;DHT22;69146;52.266;7.000;2023-12-07T13:04:41;3.60;99.90
47616;DHT22;69146;52.266;7.000;2023-12-07T13:07:25;3.60;99.90
47616;DHT22;69146;52.266;7.000;2023-12-07T13:10:10;3.60;99.90
47616;DHT22;69146;52.266;7.000;2023-12-07T13:12:56;3.60;99.90
47616;DHT22;69146;52.266;7.000;2023-12-07T13:15:41;3.50;99.90
47616;DHT22;69146;52.266;7.000;2023-12-07T13:18:25;3.50;99.90
47616;DHT22;69146;52.266;7.000;2023-12-07T13:21:10;3.60;99.90
47616;DHT22;69146;52.266;7.000;2023-12-07T13:23:54;3.50;99.90
47616;DHT22;69146;52.266;7.000;2023-12-07T13:26:39;3.40;99.90
47616;DHT22;69146;52.266;7.000;2023-12-07T13:29:24;3.40;99.90
47616;DHT22;69146;52.266;7.000;2023-12-07T13:32:09;3.30;99.90
47616;DHT22;69146;52.266;7.000;2023-12-07T13:34:54;3.30;99.90
47616;DHT22;69146;52.266;7.000;2023-12-07T13:37:39;3.30;99.90
47616;DHT22;69146;52.266;7.000;2023-12-07T13:40:23;3.30;99.90
47616;DHT22;69146;52.266;7.000;2023-12-07T13:43:08;3.30;99.90
47616;DHT22;69146;52.266;7.000;2023-12-07T13:45:55;3.30;99.90
47616;DHT22;69146;52.266;7.000;2023-12-07T13:48:48;3.30;99.90
47616;DHT22;69146;52.266;7.000;2023-12-07T13:51:32;3.40;99.90
47616;DHT22;69146;52.266;7.000;2023-12-07T13:54:17;3.30;99.90
47616;DHT22;69146;52.266;7.000;2023-12-07T13:57:02;3.30;99.90
47616;DHT22;69146;52.266;7.000;2023-12-07T13:59:48;3.40;99.90
47616;DHT22;69146;52.266;7.000;2023-12-07T14:02:36;3.30;99.90
47616;DHT22;69146;52.266;7.000;2023-12-07T14:05:20;3.30;99.90
47616;DHT22;69146;52.266;7.000;2023-12-07T14:08:05;3.40;99.90
47616;DHT22;69146;52.266;7.000;2023-12-07T14:10:50;3.30;99.90
47616;DHT22;69146;52.266;7.000;2023-12-07T14:13:35;3.40;99.90
47616;DHT22;69146;52.266;7.000;2023-12-07T14:16:19;3.40;99.90
47616;DHT22;69146;52.266;7.000;2023-12-07T14:19:05;3.40;99.90
47616;DHT22;69146;52.266;7.000;2023-12-07T14:21:49;3.40;99.90
47616;DHT22;69146;52.266;7.000;2023-12-07T14:24:35;3.40;99.90
47616;DHT22;69146;52.266;7.000;2023-12-07T14:27:20;3.30;99.90
47616;DHT22;69146;52.266;7.000;2023-12-07T14:30:05;3.30;99.90
47616;DHT22;69146;52.266;7.000;2023-12-07T14:32:50;3.20;99.90
47616;DHT22;69146;52.266;7.000;2023-12-07T14:35:39;3.20;99.90
47616;DHT22;69146;52.266;7.000;2023-12-07T14:38:23;3.10;99.90
47616;DHT22;69146;52.266;7.000;2023-12-07T14:41:08;3.10;99.90
47616;DHT22;69146;52.266;7.000;2023-12-07T14:43:52;3.00;99.90
47616;DHT22;69146;52.266;7.000;2023-12-07T14:46:38;2.90;99.90
47616;DHT22;69146;52.266;7.000;2023-12-07T14:49:22;2.90;99.90
47616;DHT22;69146;52.266;7.000;2023-12-07T14:52:08;2.90;99.90
47616;DHT22;69146;52.266;7.000;2023-12-07T14:54:53;2.80;99.90
47616;DHT22;69146;52.266;7.000;2023-12-07T14:57:37;2.80;99.90
47616;DHT22;69146;52.266;7.000;2023-12-07T15:00:22;2.80;99.90
47616;DHT22;69146;52.266;7.000;2023-12-07T15:03:06;2.80;99.90
47616;DHT22;69146;52.266;7.000;2023-12-07T15:05:51;2.70;99.90
47616;DHT22;69146;52.266;7.000;2023-12-07T15:08:38;2.60;99.90
47616;DHT22;69146;52.266;7.000;2023-12-07T15:11:22;2.50;99.90
47616;DHT22;69146;52.266;7.000;2023-12-07T15:14:06;2.40;99.90
47616;DHT22;69146;52.266;7.000;2023-12-07T15:16:51;2.30;99.90
47616;DHT22;69146;52.266;7.000;2023-12-07T15:19:38;2.30;99.90
47616;DHT22;69146;52.266;7.000;2023-12-07T15:22:22;2.20;99.90
47616;DHT22;69146;52.266;7.000;2023-12-07T15:25:08;2.10;99.90
47616;DHT22;69146;52.266;7.000;2023-12-07T15:27:53;2.20;99.90
47616;DHT22;69146;52.266;7.000;2023-12-07T15:30:38;2.20;99.90
47616;DHT22;69146;52.266;7.000;2023-12-07T15:33:23;2.20;99.90
47616;DHT22;69146;52.266;7.000;2023-12-07T15:36:08;2.10;99.90
47616;DHT22;69146;52.266;7.000;2023-12-07T15:38:52;2.10;99.90
47616;DHT22;69146;52.266;7.000;2023-12-07T15:41:39;2.00;99.90
47616;DHT22;69146;52.266;7.000;2023-12-07T15:44:23;2.00;99.90
47616;DHT22;69146;52.266;7.000;2023-12-07T15:47:08;2.00;99.90
47616;DHT22;69146;52.266;7.000;2023-12-07T15:49:52;1.90;99.90
47616;DHT22;69146;52.266;7.000;2023-12-07T15:52:37;1.90;99.90
47616;DHT22;69146;52.266;7.000;2023-12-07T15:55:22;1.90;99.90
47616;DHT22;69146;52.266;7.000;2023-12-07T15:58:07;1.80;99.90
47616;DHT22;69146;52.266;7.000;2023-12-07T16:00:52;1.80;99.90
47616;DHT22;69146;52.266;7.000;2023-12-07T16:03:36;1.70;99.90
47616;DHT22;69146;52.266;7.000;2023-12-07T16:06:21;1.70;99.90
47616;DHT22;69146;52.266;7.000;2023-12-07T16:09:06;1.70;99.90
47616;DHT22;69146;52.266;7.000;2023-12-07T16:11:50;1.60;99.90
47616;DHT22;69146;52.266;7.000;2023-12-07T16:14:36;1.60;99.90
47616;DHT22;69146;52.266;7.000;2023-12-07T16:17:21;1.60;99.90
47616;DHT22;69146;52.266;7.000;2023-12-07T16:20:06;1.60;99.90
47616;DHT22;69146;52.266;7.000;2023-12-07T16:22:54;1.60;99.90
47616;DHT22;69146;52.266;7.000;2023-12-07T16:25:39;1.60;99.90
47616;DHT22;69146;52.266;7.000;2023-12-07T16:28:23;1.50;99.90
47616;DHT22;69146;52.266;7.000;2023-12-07T16:31:09;1.50;99.90
47616;DHT22;69146;52.266;7.000;2023-12-07T16:33:54;1.60;99.90
47616;DHT22;69146;52.266;7.000;2023-12-07T16:36:38;1.50;99.90
47616;DHT22;69146;52.266;7.000;2023-12-07T16:39:23;1.40;99.90
47616;DHT22;69146;52.266;7.000;2023-12-07T16:42:09;1.50;99.90
47616;DHT22;69146;52.266;7.000;2023-12-07T16:44:54;1.40;99.90
47616;DHT22;69146;52.266;7.000;2023-12-07T16:47:41;1.40;99.90
47616;DHT22;69146;52.266;7.000;2023-12-07T16:50:25;1.40;99.90
47616;DHT22;69146;52.266;7.000;2023-12-07T16:53:10;1.30;99.90
47616;DHT22;69146;52.266;7.000;2023-12-07T16:55:57;1.30;99.90
47616;DHT22;69146;52.266;7.000;2023-12-07T16:58:42;1.30;99.90
47616;DHT22;69146;52.266;7.000;2023-12-07T17:01:26;1.30;99.90
47616;DHT22;69146;52.266;7.000;2023-12-07T17:04:12;1.30;99.90
47616;DHT22;69146;52.266;7.000;2023-12-07T17:06:57;1.30;99.90
47616;DHT22;69146;52.266;7.000;2023-12-07T17:09:41;1.30;99.90
47616;DHT22;69146;52.266;7.000;2023-12-07T17:12:26;1.30;99.90
47616;DHT22;69146;52.266;7.000;2023-12-07T17:15:11;1.30;99.90
47616;DHT22;69146;52.266;7.000;2023-12-07T17:17:56;1.20;99.90
47616;DHT22;69146;52.266;7.000;2023-12-07T17:20:41;1.30;99.90
47616;DHT22;69146;52.266;7.000;2023-12-07T17:23:25;1.30;99.90
47616;DHT22;69146;52.266;7.000;2023-12-07T17:26:10;1.30;99.90
47616;DHT22;69146;52.266;7.000;2023-12-07T17:28:56;1.30;99.90
47616;DHT22;69146;52.266;7.000;2023-12-07T17:31:41;1.20;99.90
47616;DHT22;69146;52.266;7.000;2023-12-07T17:34:27;1.20;99.90
47616;DHT22;69146;52.266;7.000;2023-12-07T17:37:13;1.20;99.90
47616;DHT22;69146;52.266;7.000;2023-12-07T17:39:58;1.20;99.90
47616;DHT22;69146;52.266;7.000;2023-12-07T17:42:42;1.20;99.90